Altamonte Springs, FL (32701)

8:55 PM EDT on August 27, 2016 (GMT -0400)
Prairie Lake | | Change Station

Elev 112 ft 28.66 °N, 81.36 °W | Updated 24 seconds ago

Clear
Clear
79.2 °F
Feels Like 84 °F
N
0.0
Wind Variable Wind from South

Today
High -- | Low -- °F
--% Chance of Precip.
Yesterday
High -- | Low -- °F
Precip. -- in
Pressure 29.98 in
Visibility 10.0 miles
Clouds Clear
Heat Index 84 °F
Dew Point 77 °F
Humidity 93%
Rainfall 0.10 in
Snow Depth Not available.
7:01 AM 7:51 PM
Waning Crescent, 20% visible
METAR KORL 280053Z 07006KT 10SM CLR 27/25 A2997 RMK AO2 SLP151 T02670250
Pressure 29.98 in
Visibility 10.0 miles
Clouds Clear
Heat Index 84 °F
Dew Point 77 °F
Humidity 93%
Rainfall 0.10 in
Snow Depth Not available.
7:01 AM 7:51 PM
Waning Crescent, 20% visible
METAR KORL 280053Z 07006KT 10SM CLR 27/25 A2997 RMK AO2 SLP151 T02670250

10-Day Weather Forecast

Almanac

Astronomy

Aug. 27, 2016 Rise Set
Actual Time
Civil Twilight
Nautical Twilight
Astronomical Twilight
Moon
Length of Visible Light
Length of Day
Tomorrow will be .
, % of the Moon is Illuminated

Today's Extremes

State Highs State Lows

Community

WunderPhotos

Upload Photos

1,935,475 photos uploaded!

WunderBlog® & News

Nearby

Air Quality

  Air Quality AQ Index Pollutant
Not available.

Snow Depth

Station Depth Elevation

Earthquake Activity

City Distance Mag. Time & Date
Minimum magnitude displayed is 2.5.

Coastal Water Temperatures

Place Temperature

Stations

Nearby Weather Stations

Station Location Temp. Windchill Dew Point Humidity Wind Precip. Elev Updated Type
                   

Watches & Warnings

There are currently no watches in effect.